Grimsley, Tennessee
Current Conditions -  °F | °C
As of 7:13 PM on Sunday 23 Nov 2014 (Local Time) from KCSV Reporting Station
Overcast Overcast  
Wind Chill: 58°   Ceiling: 800
Heat Index: 58°   Visibility: 10mi
Dew Point: 53°   Wind: 13mph
Humidity: 84%   Direction: 180°S
Pressure: 29.52"   Gusts: 31mph
Location:  36.27°N, 84.98°W
Report Text: KCSV 240113Z AUTO 18011G27KT 10SM OVC008 14/12 A2952 RMK AO2 PK WND 18027/0105 CIG 007V011 T01440117
Loading
Personal Weather Stations






























Interactive Weather Map New forecast layout! Learn more

10-Day Weather Forecast

Advertisements
Track Severe Weather on mobile